sensor_id;sensor_type;location;lat;lon;timestamp;pressure;altitude;pressure_sealevel;temperature;humidity
48614;BME280;34408;51.426;5.444;2022-11-13T00:00:22;102612.03;;;11.49;64.15
48614;BME280;34408;51.426;5.444;2022-11-13T00:02:50;102600.44;;;11.48;64.17
48614;BME280;34408;51.426;5.444;2022-11-13T00:05:18;102608.69;;;11.47;64.12
48614;BME280;34408;51.426;5.444;2022-11-13T00:07:45;102601.44;;;11.47;63.99
48614;BME280;34408;51.426;5.444;2022-11-13T00:10:13;102594.19;;;11.48;64.10
48614;BME280;34408;51.426;5.444;2022-11-13T00:12:43;102605.16;;;11.46;64.05
48614;BME280;34408;51.426;5.444;2022-11-13T00:15:10;102600.78;;;11.45;63.98
48614;BME280;34408;51.426;5.444;2022-11-13T00:17:38;102590.03;;;11.45;63.96
48614;BME280;34408;51.426;5.444;2022-11-13T00:20:06;102598.94;;;11.46;64.04
48614;BME280;34408;51.426;5.444;2022-11-13T00:22:34;102594.38;;;11.46;63.85
48614;BME280;34408;51.426;5.444;2022-11-13T00:25:02;102596.25;;;11.46;63.96
48614;BME280;34408;51.426;5.444;2022-11-13T00:27:30;102589.19;;;11.45;63.87
48614;BME280;34408;51.426;5.444;2022-11-13T00:29:59;102590.22;;;11.44;63.80
48614;BME280;34408;51.426;5.444;2022-11-13T00:32:26;102586.69;;;11.43;63.95
48614;BME280;34408;51.426;5.444;2022-11-13T00:34:54;102587.69;;;11.42;63.90
48614;BME280;34408;51.426;5.444;2022-11-13T00:37:22;102578.78;;;11.41;63.85
48614;BME280;34408;51.426;5.444;2022-11-13T00:39:49;102579.63;;;11.42;63.68
48614;BME280;34408;51.426;5.444;2022-11-13T00:42:24;102572.38;;;11.43;63.59
48614;BME280;34408;51.426;5.444;2022-11-13T00:44:52;102569.03;;;11.40;63.80
48614;BME280;34408;51.426;5.444;2022-11-13T00:47:21;102570.91;;;11.40;63.80
48614;BME280;34408;51.426;5.444;2022-11-13T00:49:49;102560.50;;;11.37;63.59
48614;BME280;34408;51.426;5.444;2022-11-13T00:52:17;102562.34;;;11.36;63.72
48614;BME280;34408;51.426;5.444;2022-11-13T00:54:44;102559.84;;;11.35;63.60
48614;BME280;34408;51.426;5.444;2022-11-13T00:57:12;102567.91;;;11.35;63.68
48614;BME280;34408;51.426;5.444;2022-11-13T00:59:39;102557.16;;;11.35;63.50
48614;BME280;34408;51.426;5.444;2022-11-13T01:02:07;102550.94;;;11.34;63.63
48614;BME280;34408;51.426;5.444;2022-11-13T01:04:36;102553.81;;;11.33;63.42
48614;BME280;34408;51.426;5.444;2022-11-13T01:07:04;102558.34;;;11.32;63.32
48614;BME280;34408;51.426;5.444;2022-11-13T01:09:32;102562.06;;;11.31;63.42
48614;BME280;34408;51.426;5.444;2022-11-13T01:12:00;102555.03;;;11.30;63.42
48614;BME280;34408;51.426;5.444;2022-11-13T01:14:27;102558.72;;;11.29;63.46
48614;BME280;34408;51.426;5.444;2022-11-13T01:16:55;102555.19;;;11.29;63.54
48614;BME280;34408;51.426;5.444;2022-11-13T01:19:23;102550.00;;;11.27;63.51
48614;BME280;34408;51.426;5.444;2022-11-13T01:21:52;102555.56;;;11.26;63.45
48614;BME280;34408;51.426;5.444;2022-11-13T01:24:19;102545.47;;;11.28;63.30
48614;BME280;34408;51.426;5.444;2022-11-13T01:26:47;102539.44;;;11.26;63.42
48614;BME280;34408;51.426;5.444;2022-11-13T01:29:15;102539.44;;;11.26;63.28
48614;BME280;34408;51.426;5.444;2022-11-13T01:31:42;102538.78;;;11.24;63.42
48614;BME280;34408;51.426;5.444;2022-11-13T01:34:10;102539.78;;;11.23;63.13
48614;BME280;34408;51.426;5.444;2022-11-13T01:36:38;102546.84;;;11.24;63.16
48614;BME280;34408;51.426;5.444;2022-11-13T01:39:08;102547.03;;;11.22;63.41
48614;BME280;34408;51.426;5.444;2022-11-13T01:41:36;102545.34;;;11.21;63.12
48614;BME280;34408;51.426;5.444;2022-11-13T01:44:08;102547.22;;;11.21;63.16
48614;BME280;34408;51.426;5.444;2022-11-13T01:46:39;102537.84;;;11.17;62.82
48614;BME280;34408;51.426;5.444;2022-11-13T01:49:26;102533.28;;;11.17;63.27
48614;BME280;34408;51.426;5.444;2022-11-13T01:51:59;102540.53;;;11.17;63.18
48614;BME280;34408;51.426;5.444;2022-11-13T01:54:32;102526.25;;;11.16;63.01
48614;BME280;34408;51.426;5.444;2022-11-13T01:57:03;102517.53;;;11.14;63.16
48614;BME280;34408;51.426;5.444;2022-11-13T01:59:34;102514.00;;;11.14;63.03
48614;BME280;34408;51.426;5.444;2022-11-13T02:02:05;102513.34;;;11.12;62.99
48614;BME280;34408;51.426;5.444;2022-11-13T02:04:33;102492.09;;;11.02;62.98
48614;BME280;34408;51.426;5.444;2022-11-13T02:07:04;102517.88;;;11.11;62.72
48614;BME280;34408;51.426;5.444;2022-11-13T02:09:35;102511.66;;;11.11;62.78
48614;BME280;34408;51.426;5.444;2022-11-13T02:12:05;102507.31;;;11.09;62.83
48614;BME280;34408;51.426;5.444;2022-11-13T02:14:34;102499.22;;;11.09;62.81
48614;BME280;34408;51.426;5.444;2022-11-13T02:17:06;102499.59;;;11.06;62.83
48614;BME280;34408;51.426;5.444;2022-11-13T02:19:37;102495.25;;;11.05;62.82
48614;BME280;34408;51.426;5.444;2022-11-13T02:22:10;102491.72;;;11.05;62.80
48614;BME280;34408;51.426;5.444;2022-11-13T02:24:44;102489.88;;;11.05;62.94
48614;BME280;34408;51.426;5.444;2022-11-13T02:27:24;102495.25;;;11.05;62.61
48614;BME280;34408;51.426;5.444;2022-11-13T02:29:53;102490.03;;;11.04;62.76
48614;BME280;34408;51.426;5.444;2022-11-13T02:32:21;102486.53;;;11.03;62.69
48614;BME280;34408;51.426;5.444;2022-11-13T02:34:49;102481.13;;;11.03;62.77
48614;BME280;34408;51.426;5.444;2022-11-13T02:37:17;102484.84;;;11.02;62.73
48614;BME280;34408;51.426;5.444;2022-11-13T02:39:45;102476.97;;;11.01;62.71
48614;BME280;34408;51.426;5.444;2022-11-13T02:42:13;102478.81;;;11.00;62.71
48614;BME280;34408;51.426;5.444;2022-11-13T02:44:41;102484.19;;;11.00;62.64
48614;BME280;34408;51.426;5.444;2022-11-13T02:47:09;102486.06;;;11.00;62.82
48614;BME280;34408;51.426;5.444;2022-11-13T02:49:36;102470.94;;;10.99;62.65
48614;BME280;34408;51.426;5.444;2022-11-13T02:52:04;102464.72;;;10.98;62.58
48614;BME280;34408;51.426;5.444;2022-11-13T02:54:32;102467.59;;;10.97;62.58
48614;BME280;34408;51.426;5.444;2022-11-13T02:57:01;102471.31;;;10.96;62.70
48614;BME280;34408;51.426;5.444;2022-11-13T02:59:28;102476.69;;;10.96;62.69
48614;BME280;34408;51.426;5.444;2022-11-13T03:01:56;102477.69;;;10.95;62.63
48614;BME280;34408;51.426;5.444;2022-11-13T03:04:24;102471.31;;;10.96;62.51
48614;BME280;34408;51.426;5.444;2022-11-13T03:07:09;102467.97;;;10.94;62.52
48614;BME280;34408;51.426;5.444;2022-11-13T03:09:37;102468.97;;;10.93;62.59
48614;BME280;34408;51.426;5.444;2022-11-13T03:12:07;102467.13;;;10.93;62.59
48614;BME280;34408;51.426;5.444;2022-11-13T03:14:35;102462.75;;;10.92;62.53
48614;BME280;34408;51.426;5.444;2022-11-13T03:17:03;102455.72;;;10.91;62.50
48614;BME280;34408;51.426;5.444;2022-11-13T03:19:31;102453.22;;;10.90;62.60
48614;BME280;34408;51.426;5.444;2022-11-13T03:21:59;102449.69;;;10.89;62.36
48614;BME280;34408;51.426;5.444;2022-11-13T03:24:26;102450.69;;;10.88;62.45
48614;BME280;34408;51.426;5.444;2022-11-13T03:26:54;102452.75;;;10.86;62.36
48614;BME280;34408;51.426;5.444;2022-11-13T03:29:23;102450.88;;;10.87;62.49
48614;BME280;34408;51.426;5.444;2022-11-13T03:31:51;102437.72;;;10.77;62.18
48614;BME280;34408;51.426;5.444;2022-11-13T03:34:18;102454.59;;;10.86;62.45
48614;BME280;34408;51.426;5.444;2022-11-13T03:36:46;102451.91;;;10.86;62.50
48614;BME280;34408;51.426;5.444;2022-11-13T03:39:14;102452.09;;;10.84;62.46
48614;BME280;34408;51.426;5.444;2022-11-13T03:41:42;102441.16;;;10.86;62.37
48614;BME280;34408;51.426;5.444;2022-11-13T03:44:09;102443.19;;;10.84;62.38
48614;BME280;34408;51.426;5.444;2022-11-13T03:46:39;102437.81;;;10.84;62.39
48614;BME280;34408;51.426;5.444;2022-11-13T03:49:07;102436.97;;;10.83;62.34
48614;BME280;34408;51.426;5.444;2022-11-13T03:51:34;102434.28;;;10.83;62.45
48614;BME280;34408;51.426;5.444;2022-11-13T03:54:02;102427.41;;;10.81;62.46
48614;BME280;34408;51.426;5.444;2022-11-13T03:56:30;102433.63;;;10.81;62.39
48614;BME280;34408;51.426;5.444;2022-11-13T03:58:57;102428.25;;;10.81;62.41
48614;BME280;34408;51.426;5.444;2022-11-13T04:01:25;102428.44;;;10.80;62.44
48614;BME280;34408;51.426;5.444;2022-11-13T04:03:54;102429.94;;;10.82;62.29
48614;BME280;34408;51.426;5.444;2022-11-13T04:06:22;102430.09;;;10.81;62.27
48614;BME280;34408;51.426;5.444;2022-11-13T04:08:50;102422.03;;;10.81;62.34
48614;BME280;34408;51.426;5.444;2022-11-13T04:11:17;102424.09;;;10.79;62.15
48614;BME280;34408;51.426;5.444;2022-11-13T04:13:45;102418.69;;;10.79;62.31
48614;BME280;34408;51.426;5.444;2022-11-13T04:16:13;102420.75;;;10.76;62.45
48614;BME280;34408;51.426;5.444;2022-11-13T04:18:40;102412.84;;;10.75;62.39
48614;BME280;34408;51.426;5.444;2022-11-13T04:21:09;102414.53;;;10.76;62.31
48614;BME280;34408;51.426;5.444;2022-11-13T04:23:37;102406.66;;;10.74;62.22
48614;BME280;34408;51.426;5.444;2022-11-13T04:26:05;102404.78;;;10.75;62.32
48614;BME280;34408;51.426;5.444;2022-11-13T04:28:32;102402.09;;;10.75;62.31
48614;BME280;34408;51.426;5.444;2022-11-13T04:31:00;102400.25;;;10.75;62.06
48614;BME280;34408;51.426;5.444;2022-11-13T04:33:28;102402.28;;;10.73;62.34
48614;BME280;34408;51.426;5.444;2022-11-13T04:35:55;102396.06;;;10.73;62.29
48614;BME280;34408;51.426;5.444;2022-11-13T04:38:24;102397.09;;;10.72;62.22
48614;BME280;34408;51.426;5.444;2022-11-13T04:40:53;102385.69;;;10.70;62.39
48614;BME280;34408;51.426;5.444;2022-11-13T04:43:40;102389.41;;;10.69;62.31
48614;BME280;34408;51.426;5.444;2022-11-13T04:46:07;102389.41;;;10.69;62.38
48614;BME280;34408;51.426;5.444;2022-11-13T04:48:35;102386.88;;;10.67;62.38
48614;BME280;34408;51.426;5.444;2022-11-13T04:51:03;102382.34;;;10.68;62.05
48614;BME280;34408;51.426;5.444;2022-11-13T04:53:32;102391.25;;;10.68;62.26
48614;BME280;34408;51.426;5.444;2022-11-13T04:56:00;102386.06;;;10.67;62.20
48614;BME280;34408;51.426;5.444;2022-11-13T04:58:28;102382.72;;;10.65;62.15
48614;BME280;34408;51.426;5.444;2022-11-13T05:00:56;102377.53;;;10.63;62.36
48614;BME280;34408;51.426;5.444;2022-11-13T05:03:24;102381.03;;;10.64;62.50
48614;BME280;34408;51.426;5.444;2022-11-13T05:05:51;102382.06;;;10.63;62.16
48614;BME280;34408;51.426;5.444;2022-11-13T05:08:19;102382.91;;;10.63;62.20
48614;BME280;34408;51.426;5.444;2022-11-13T05:10:48;102381.22;;;10.62;62.10
48614;BME280;34408;51.426;5.444;2022-11-13T05:13:16;102384.09;;;10.61;62.10
48614;BME280;34408;51.426;5.444;2022-11-13T05:15:43;102374.19;;;10.61;62.08
48614;BME280;34408;51.426;5.444;2022-11-13T05:18:11;102369.81;;;10.60;61.81
48614;BME280;34408;51.426;5.444;2022-11-13T05:20:39;102369.00;;;10.60;62.20
48614;BME280;34408;51.426;5.444;2022-11-13T05:23:07;102361.13;;;10.58;61.99
48614;BME280;34408;51.426;5.444;2022-11-13T05:25:34;102362.97;;;10.58;62.15
48614;BME280;34408;51.426;5.444;2022-11-13T05:28:03;102363.81;;;10.58;62.08
48614;BME280;34408;51.426;5.444;2022-11-13T05:30:31;102354.25;;;10.56;62.11
48614;BME280;34408;51.426;5.444;2022-11-13T05:32:59;102362.31;;;10.56;62.11
48614;BME280;34408;51.426;5.444;2022-11-13T05:35:26;102352.59;;;10.55;62.00
48614;BME280;34408;51.426;5.444;2022-11-13T05:37:54;102357.97;;;10.55;61.86
48614;BME280;34408;51.426;5.444;2022-11-13T05:40:22;102358.13;;;10.53;61.87
48614;BME280;34408;51.426;5.444;2022-11-13T05:42:51;102353.78;;;10.52;61.77
48614;BME280;34408;51.426;5.444;2022-11-13T05:45:20;102353.78;;;10.52;61.98
48614;BME280;34408;51.426;5.444;2022-11-13T05:47:48;102353.13;;;10.50;62.04
48614;BME280;34408;51.426;5.444;2022-11-13T05:50:16;102348.59;;;10.51;61.90
48614;BME280;34408;51.426;5.444;2022-11-13T05:52:46;102361.19;;;10.50;61.94
48614;BME280;34408;51.426;5.444;2022-11-13T05:55:14;102350.81;;;10.47;61.63
48614;BME280;34408;51.426;5.444;2022-11-13T05:57:42;102348.97;;;10.48;61.79
48614;BME280;34408;51.426;5.444;2022-11-13T06:00:10;102356.38;;;10.46;61.87
48614;BME280;34408;51.426;5.444;2022-11-13T06:02:39;102353.69;;;10.46;61.80
48614;BME280;34408;51.426;5.444;2022-11-13T06:05:07;102356.38;;;10.46;61.80
48614;BME280;34408;51.426;5.444;2022-11-13T06:07:35;102348.31;;;10.46;61.88
48614;BME280;34408;51.426;5.444;2022-11-13T06:10:03;102341.81;;;10.55;61.41
48614;BME280;34408;51.426;5.444;2022-11-13T06:12:31;102341.00;;;10.69;61.04
48614;BME280;34408;51.426;5.444;2022-11-13T06:14:59;102343.31;;;10.87;60.20
48614;BME280;34408;51.426;5.444;2022-11-13T06:17:27;102337.63;;;10.96;59.96
48614;BME280;34408;51.426;5.444;2022-11-13T06:19:56;102334.47;;;11.07;59.48
48614;BME280;34408;51.426;5.444;2022-11-13T06:22:23;102340.19;;;11.19;58.85
48614;BME280;34408;51.426;5.444;2022-11-13T06:24:51;102339.31;;;11.33;58.43
48614;BME280;34408;51.426;5.444;2022-11-13T06:27:19;102328.69;;;11.47;57.91
48614;BME280;34408;51.426;5.444;2022-11-13T06:29:46;102324.97;;;11.48;57.59
48614;BME280;34408;51.426;5.444;2022-11-13T06:32:14;102327.59;;;11.41;57.96
48614;BME280;34408;51.426;5.444;2022-11-13T06:34:41;102331.81;;;11.29;58.07
48614;BME280;34408;51.426;5.444;2022-11-13T06:37:10;102317.38;;;11.15;58.50
48614;BME280;34408;51.426;5.444;2022-11-13T06:39:38;102313.97;;;11.06;58.75
48614;BME280;34408;51.426;5.444;2022-11-13T06:42:06;102317.78;;;10.97;58.91
48614;BME280;34408;51.426;5.444;2022-11-13T06:44:33;102317.50;;;10.92;59.22
48614;BME280;34408;51.426;5.444;2022-11-13T06:47:01;102320.50;;;10.83;59.46
48614;BME280;34408;51.426;5.444;2022-11-13T06:49:29;102328.28;;;10.77;59.55
48614;BME280;34408;51.426;5.444;2022-11-13T06:51:56;102329.69;;;10.73;59.67
48614;BME280;34408;51.426;5.444;2022-11-13T06:54:25;102319.47;;;10.69;59.70
48614;BME280;34408;51.426;5.444;2022-11-13T06:56:53;102320.03;;;10.64;59.88
48614;BME280;34408;51.426;5.444;2022-11-13T06:59:21;102322.28;;;10.61;59.79
48614;BME280;34408;51.426;5.444;2022-11-13T07:01:49;102313.75;;;10.57;60.04
48614;BME280;34408;51.426;5.444;2022-11-13T07:04:17;102314.75;;;10.56;59.96
48614;BME280;34408;51.426;5.444;2022-11-13T07:06:45;102317.16;;;10.51;59.91
48614;BME280;34408;51.426;5.444;2022-11-13T07:09:13;102321.06;;;10.49;59.98
48614;BME280;34408;51.426;5.444;2022-11-13T07:11:42;102320.59;;;10.45;59.90
48614;BME280;34408;51.426;5.444;2022-11-13T07:14:10;102322.00;;;10.41;59.83
48614;BME280;34408;51.426;5.444;2022-11-13T07:16:38;102321.16;;;10.40;60.18
48614;BME280;34408;51.426;5.444;2022-11-13T07:19:26;102317.00;;;10.38;60.17
48614;BME280;34408;51.426;5.444;2022-11-13T07:21:54;102318.22;;;10.35;60.26
48614;BME280;34408;51.426;5.444;2022-11-13T07:24:21;102312.84;;;10.35;60.07
48614;BME280;34408;51.426;5.444;2022-11-13T07:26:50;102310.53;;;10.32;60.11
48614;BME280;34408;51.426;5.444;2022-11-13T07:29:18;102299.97;;;10.31;60.36
48614;BME280;34408;51.426;5.444;2022-11-13T07:31:46;102305.50;;;10.29;60.17
48614;BME280;34408;51.426;5.444;2022-11-13T07:34:13;102303.19;;;10.26;60.19
48614;BME280;34408;51.426;5.444;2022-11-13T07:36:41;102299.31;;;10.29;60.36
48614;BME280;34408;51.426;5.444;2022-11-13T07:39:09;102302.00;;;10.29;60.37
48614;BME280;34408;51.426;5.444;2022-11-13T07:41:37;102310.88;;;10.29;60.20
48614;BME280;34408;51.426;5.444;2022-11-13T07:44:06;102310.25;;;10.27;60.38
48614;BME280;34408;51.426;5.444;2022-11-13T07:46:36;102305.06;;;10.26;60.19
48614;BME280;34408;51.426;5.444;2022-11-13T07:49:04;102299.84;;;10.24;60.31
48614;BME280;34408;51.426;5.444;2022-11-13T07:51:32;102298.38;;;10.22;60.53
48614;BME280;34408;51.426;5.444;2022-11-13T07:53:59;102297.53;;;10.21;60.16
48614;BME280;34408;51.426;5.444;2022-11-13T07:56:27;102294.84;;;10.21;60.57
48614;BME280;34408;51.426;5.444;2022-11-13T07:58:55;102293.19;;;10.20;60.44
48614;BME280;34408;51.426;5.444;2022-11-13T08:01:24;102298.56;;;10.20;60.55
48614;BME280;34408;51.426;5.444;2022-11-13T08:03:52;102292.34;;;10.20;60.60
48614;BME280;34408;51.426;5.444;2022-11-13T08:06:20;102286.78;;;10.21;60.61
48614;BME280;34408;51.426;5.444;2022-11-13T08:08:49;102282.44;;;10.20;60.60
48614;BME280;34408;51.426;5.444;2022-11-13T08:11:17;102294.16;;;10.19;60.75
48614;BME280;34408;51.426;5.444;2022-11-13T08:13:44;102292.50;;;10.18;61.07
48614;BME280;34408;51.426;5.444;2022-11-13T08:16:12;102289.34;;;10.15;61.01
48614;BME280;34408;51.426;5.444;2022-11-13T08:18:41;102292.69;;;10.17;61.26
48614;BME280;34408;51.426;5.444;2022-11-13T08:21:09;102295.38;;;10.17;60.83
48614;BME280;34408;51.426;5.444;2022-11-13T08:23:40;102287.31;;;10.17;61.23
48614;BME280;34408;51.426;5.444;2022-11-13T08:26:09;102276.38;;;10.18;60.97
48614;BME280;34408;51.426;5.444;2022-11-13T08:28:36;102271.84;;;10.19;61.27
48614;BME280;34408;51.426;5.444;2022-11-13T08:31:09;102273.53;;;10.20;60.97
48614;BME280;34408;51.426;5.444;2022-11-13T08:33:37;102272.69;;;10.19;61.08
48614;BME280;34408;51.426;5.444;2022-11-13T08:36:07;102270.84;;;10.20;61.37
48614;BME280;34408;51.426;5.444;2022-11-13T08:38:35;102265.81;;;10.17;61.17
48614;BME280;34408;51.426;5.444;2022-11-13T08:41:04;102281.25;;;10.23;61.23
48614;BME280;34408;51.426;5.444;2022-11-13T08:43:35;102280.41;;;10.22;60.86
48614;BME280;34408;51.426;5.444;2022-11-13T08:46:02;102283.56;;;10.26;61.23
48614;BME280;34408;51.426;5.444;2022-11-13T08:48:30;102280.69;;;10.27;60.96
48614;BME280;34408;51.426;5.444;2022-11-13T08:50:58;102276.31;;;10.26;60.96
48614;BME280;34408;51.426;5.444;2022-11-13T08:53:27;102273.28;;;10.29;61.19
48614;BME280;34408;51.426;5.444;2022-11-13T08:55:58;102270.59;;;10.29;61.07
48614;BME280;34408;51.426;5.444;2022-11-13T08:58:26;102266.03;;;10.30;61.34
48614;BME280;34408;51.426;5.444;2022-11-13T09:00:58;102269.38;;;10.32;61.12
48614;BME280;34408;51.426;5.444;2022-11-13T09:03:27;102261.31;;;10.32;61.24
48614;BME280;34408;51.426;5.444;2022-11-13T09:05:54;102264.84;;;10.32;61.06
48614;BME280;34408;51.426;5.444;2022-11-13T09:08:22;102270.22;;;10.32;61.38
48614;BME280;34408;51.426;5.444;2022-11-13T09:10:51;102265.13;;;10.37;61.27
48614;BME280;34408;51.426;5.444;2022-11-13T09:13:19;102267.94;;;10.51;60.98
48614;BME280;34408;51.426;5.444;2022-11-13T09:15:46;102256.53;;;10.63;60.80
48614;BME280;34408;51.426;5.444;2022-11-13T09:18:14;102254.19;;;10.75;60.28
48614;BME280;34408;51.426;5.444;2022-11-13T09:20:42;102255.66;;;10.92;59.77
48614;BME280;34408;51.426;5.444;2022-11-13T09:23:09;102254.78;;;11.06;59.63
48614;BME280;34408;51.426;5.444;2022-11-13T09:25:37;102245.63;;;11.22;59.16
48614;BME280;34408;51.426;5.444;2022-11-13T09:28:06;102247.09;;;11.25;58.76
48614;BME280;34408;51.426;5.444;2022-11-13T09:30:37;102241.06;;;11.23;59.04
48614;BME280;34408;51.426;5.444;2022-11-13T09:33:05;102243.50;;;11.18;59.19
48614;BME280;34408;51.426;5.444;2022-11-13T09:35:33;102250.47;;;11.12;59.65
48614;BME280;34408;51.426;5.444;2022-11-13T09:38:01;102251.06;;;11.07;59.85
48614;BME280;34408;51.426;5.444;2022-11-13T09:40:40;102246.63;;;11.00;60.04
48614;BME280;34408;51.426;5.444;2022-11-13T09:43:20;102249.06;;;10.95;60.26
48614;BME280;34408;51.426;5.444;2022-11-13T09:45:50;102247.97;;;10.89;60.75
48614;BME280;34408;51.426;5.444;2022-11-13T09:48:25;102248.34;;;10.86;60.90
48614;BME280;34408;51.426;5.444;2022-11-13T09:50:56;102251.03;;;10.86;60.96
48614;BME280;34408;51.426;5.444;2022-11-13T09:53:31;102254.72;;;10.85;61.17
48614;BME280;34408;51.426;5.444;2022-11-13T09:56:07;102251.41;;;10.83;61.56
48614;BME280;34408;51.426;5.444;2022-11-13T09:58:45;102248.06;;;10.81;61.45
48614;BME280;34408;51.426;5.444;2022-11-13T10:01:22;102252.81;;;10.79;61.66
48614;BME280;34408;51.426;5.444;2022-11-13T10:03:56;102245.75;;;10.78;61.90
48614;BME280;34408;51.426;5.444;2022-11-13T10:06:37;102244.91;;;10.77;61.77
48614;BME280;34408;51.426;5.444;2022-11-13T10:09:17;102243.06;;;10.78;61.92
48614;BME280;34408;51.426;5.444;2022-11-13T10:11:50;102248.44;;;10.78;61.67
48614;BME280;34408;51.426;5.444;2022-11-13T10:14:25;102244.91;;;10.77;62.01
48614;BME280;34408;51.426;5.444;2022-11-13T10:16:56;102236.03;;;10.77;62.10
48614;BME280;34408;51.426;5.444;2022-11-13T10:19:31;102240.38;;;10.78;62.08
48614;BME280;34408;51.426;5.444;2022-11-13T10:22:03;102240.38;;;10.78;62.30
48614;BME280;34408;51.426;5.444;2022-11-13T10:24:57;102239.16;;;10.81;62.34
48614;BME280;34408;51.426;5.444;2022-11-13T10:27:26;102239.16;;;10.81;62.38
48614;BME280;34408;51.426;5.444;2022-11-13T10:29:55;102237.31;;;10.81;62.43
48614;BME280;34408;51.426;5.444;2022-11-13T10:32:25;102222.56;;;10.77;62.19
48614;BME280;34408;51.426;5.444;2022-11-13T10:34:59;102230.72;;;10.84;62.40
48614;BME280;34408;51.426;5.444;2022-11-13T10:37:39;102221.63;;;10.85;62.51
48614;BME280;34408;51.426;5.444;2022-11-13T10:40:09;102223.28;;;10.86;62.39
48614;BME280;34408;51.426;5.444;2022-11-13T10:42:40;102215.03;;;10.87;62.78
48614;BME280;34408;51.426;5.444;2022-11-13T10:45:17;102214.84;;;10.89;62.50
48614;BME280;34408;51.426;5.444;2022-11-13T10:47:47;102214.47;;;10.92;62.67
48614;BME280;34408;51.426;5.444;2022-11-13T10:50:30;102204.34;;;10.94;62.45
48614;BME280;34408;51.426;5.444;2022-11-13T10:52:58;102196.91;;;10.96;62.34
48614;BME280;34408;51.426;5.444;2022-11-13T10:55:34;102201.09;;;10.98;62.47
48614;BME280;34408;51.426;5.444;2022-11-13T10:58:12;102200.69;;;11.01;62.42
48614;BME280;34408;51.426;5.444;2022-11-13T11:00:41;102188.09;;;11.02;62.43
48614;BME280;34408;51.426;5.444;2022-11-13T11:03:14;102183.34;;;11.04;62.50
48614;BME280;34408;51.426;5.444;2022-11-13T11:05:51;102186.28;;;11.09;62.38
48614;BME280;34408;51.426;5.444;2022-11-13T11:08:22;102180.06;;;11.08;62.42
48614;BME280;34408;51.426;5.444;2022-11-13T11:10:58;102166.88;;;11.14;62.60
48614;BME280;34408;51.426;5.444;2022-11-13T11:13:44;102171.03;;;11.16;62.58
48614;BME280;34408;51.426;5.444;2022-11-13T11:16:18;102163.59;;;11.18;62.76
48614;BME280;34408;51.426;5.444;2022-11-13T11:18:51;102164.06;;;11.22;62.68
48614;BME280;34408;51.426;5.444;2022-11-13T11:21:23;102172.97;;;11.22;62.66
48614;BME280;34408;51.426;5.444;2022-11-13T11:23:55;102173.41;;;11.26;62.82
48614;BME280;34408;51.426;5.444;2022-11-13T11:26:28;102163.28;;;11.28;62.66
48614;BME280;34408;51.426;5.444;2022-11-13T11:29:07;102164.75;;;11.30;62.49
48614;BME280;34408;51.426;5.444;2022-11-13T11:31:49;102160.84;;;11.33;62.78
48614;BME280;34408;51.426;5.444;2022-11-13T11:34:21;102169.34;;;11.36;62.70
48614;BME280;34408;51.426;5.444;2022-11-13T11:36:56;102160.91;;;11.39;62.85
48614;BME280;34408;51.426;5.444;2022-11-13T11:39:28;102154.09;;;11.44;62.75
48614;BME280;34408;51.426;5.444;2022-11-13T11:42:08;102154.72;;;11.46;62.65
48614;BME280;34408;51.426;5.444;2022-11-13T11:44:44;102146.25;;;11.49;62.95
48614;BME280;34408;51.426;5.444;2022-11-13T11:47:16;102139.84;;;11.50;62.58
48614;BME280;34408;51.426;5.444;2022-11-13T11:49:44;102127.84;;;11.52;62.72
48614;BME280;34408;51.426;5.444;2022-11-13T11:52:23;102127.47;;;11.55;62.83
48614;BME280;34408;51.426;5.444;2022-11-13T11:55:04;102112.94;;;11.50;62.89
48614;BME280;34408;51.426;5.444;2022-11-13T11:57:46;102127.69;;;11.60;63.17
48614;BME280;34408;51.426;5.444;2022-11-13T12:00:17;102118.41;;;11.63;62.95
48614;BME280;34408;51.426;5.444;2022-11-13T12:03:01;102109.09;;;11.65;63.14
48614;BME280;34408;51.426;5.444;2022-11-13T12:05:40;102109.72;;;11.67;63.32
48614;BME280;34408;51.426;5.444;2022-11-13T12:08:19;102103.31;;;11.68;63.02
48614;BME280;34408;51.426;5.444;2022-11-13T12:10:56;102099.38;;;11.71;63.27
48614;BME280;34408;51.426;5.444;2022-11-13T12:13:28;102087.59;;;11.72;63.20
48614;BME280;34408;51.426;5.444;2022-11-13T12:16:02;102094.44;;;11.74;62.86
48614;BME280;34408;51.426;5.444;2022-11-13T12:18:40;102089.69;;;11.77;63.16
48614;BME280;34408;51.426;5.444;2022-11-13T12:21:22;102077.06;;;11.77;63.22
48614;BME280;34408;51.426;5.444;2022-11-13T12:24:04;102076.47;;;11.82;63.19
48614;BME280;34408;51.426;5.444;2022-11-13T12:26:42;102077.31;;;11.82;62.96
48614;BME280;34408;51.426;5.444;2022-11-13T12:29:23;102071.53;;;11.85;62.49
48614;BME280;34408;51.426;5.444;2022-11-13T12:32:03;102064.28;;;11.86;62.83
48614;BME280;34408;51.426;5.444;2022-11-13T12:34:40;102063.88;;;11.89;63.19
48614;BME280;34408;51.426;5.444;2022-11-13T12:37:12;102052.69;;;11.92;62.73
48614;BME280;34408;51.426;5.444;2022-11-13T12:39:48;102051.47;;;11.94;62.45
48614;BME280;34408;51.426;5.444;2022-11-13T12:42:20;102049.59;;;11.95;61.84
48614;BME280;34408;51.426;5.444;2022-11-13T12:45:00;102050.03;;;11.98;61.90
48614;BME280;34408;51.426;5.444;2022-11-13T12:47:33;102041.53;;;12.01;62.46
48614;BME280;34408;51.426;5.444;2022-11-13T12:50:05;102039.69;;;12.02;61.71
48614;BME280;34408;51.426;5.444;2022-11-13T12:52:33;102033.06;;;12.04;62.30
48614;BME280;34408;51.426;5.444;2022-11-13T12:55:06;102029.94;;;12.08;62.35
48614;BME280;34408;51.426;5.444;2022-11-13T12:57:45;102023.53;;;12.09;61.58
48614;BME280;34408;51.426;5.444;2022-11-13T13:00:22;102018.78;;;12.11;61.55
48614;BME280;34408;51.426;5.444;2022-11-13T13:03:01;102013.78;;;12.14;61.33
48614;BME280;34408;51.426;5.444;2022-11-13T13:05:56;102007.97;;;12.17;61.54